sensor_id;sensor_type;location;lat;lon;timestamp;P1;durP1;ratioP1;P2;durP2;ratioP2
28625;SDS011;18905;42.668;23.364;2024-03-08T00:01:59;5.10;;;2.72;;
28625;SDS011;18905;42.668;23.364;2024-03-08T00:04:25;8.63;;;3.03;;
28625;SDS011;18905;42.668;23.364;2024-03-08T00:06:50;5.63;;;3.78;;
28625;SDS011;18905;42.668;23.364;2024-03-08T00:09:16;9.95;;;3.88;;
28625;SDS011;18905;42.668;23.364;2024-03-08T00:11:41;5.57;;;3.22;;
28625;SDS011;18905;42.668;23.364;2024-03-08T00:14:06;4.47;;;3.17;;
28625;SDS011;18905;42.668;23.364;2024-03-08T00:16:32;6.82;;;3.80;;
28625;SDS011;18905;42.668;23.364;2024-03-08T00:18:58;5.32;;;3.20;;
28625;SDS011;18905;42.668;23.364;2024-03-08T00:21:24;4.15;;;2.75;;
28625;SDS011;18905;42.668;23.364;2024-03-08T00:23:49;4.05;;;2.75;;
28625;SDS011;18905;42.668;23.364;2024-03-08T00:26:15;5.10;;;3.45;;
28625;SDS011;18905;42.668;23.364;2024-03-08T00:28:40;6.60;;;3.25;;
28625;SDS011;18905;42.668;23.364;2024-03-08T00:31:05;4.47;;;2.67;;
28625;SDS011;18905;42.668;23.364;2024-03-08T00:33:32;4.32;;;2.78;;
28625;SDS011;18905;42.668;23.364;2024-03-08T00:35:57;3.13;;;1.83;;
28625;SDS011;18905;42.668;23.364;2024-03-08T00:38:22;3.63;;;2.25;;
28625;SDS011;18905;42.668;23.364;2024-03-08T00:40:48;5.15;;;2.83;;
28625;SDS011;18905;42.668;23.364;2024-03-08T00:43:13;5.28;;;2.88;;
28625;SDS011;18905;42.668;23.364;2024-03-08T00:45:39;4.32;;;2.58;;
28625;SDS011;18905;42.668;23.364;2024-03-08T00:48:07;6.05;;;2.88;;
28625;SDS011;18905;42.668;23.364;2024-03-08T00:50:33;3.08;;;2.00;;
28625;SDS011;18905;42.668;23.364;2024-03-08T00:52:59;2.53;;;2.03;;
28625;SDS011;18905;42.668;23.364;2024-03-08T00:55:24;6.15;;;2.35;;
28625;SDS011;18905;42.668;23.364;2024-03-08T00:57:50;2.47;;;2.25;;
28625;SDS011;18905;42.668;23.364;2024-03-08T01:00:15;1.83;;;1.55;;
28625;SDS011;18905;42.668;23.364;2024-03-08T01:02:41;1.38;;;1.27;;
28625;SDS011;18905;42.668;23.364;2024-03-08T01:05:07;2.22;;;1.38;;
28625;SDS011;18905;42.668;23.364;2024-03-08T01:07:34;1.73;;;1.45;;
28625;SDS011;18905;42.668;23.364;2024-03-08T01:10:00;3.10;;;1.75;;
28625;SDS011;18905;42.668;23.364;2024-03-08T01:12:27;1.13;;;1.05;;
28625;SDS011;18905;42.668;23.364;2024-03-08T01:14:52;0.88;;;0.85;;
28625;SDS011;18905;42.668;23.364;2024-03-08T01:17:17;1.60;;;1.50;;
28625;SDS011;18905;42.668;23.364;2024-03-08T01:19:43;0.98;;;0.73;;
28625;SDS011;18905;42.668;23.364;2024-03-08T01:22:10;1.85;;;1.27;;
28625;SDS011;18905;42.668;23.364;2024-03-08T01:24:35;1.20;;;1.10;;
28625;SDS011;18905;42.668;23.364;2024-03-08T01:27:02;3.28;;;1.13;;
28625;SDS011;18905;42.668;23.364;2024-03-08T01:29:27;1.58;;;1.38;;
28625;SDS011;18905;42.668;23.364;2024-03-08T01:31:54;1.50;;;1.05;;
28625;SDS011;18905;42.668;23.364;2024-03-08T01:34:21;1.35;;;1.20;;
28625;SDS011;18905;42.668;23.364;2024-03-08T01:36:47;2.85;;;1.60;;
28625;SDS011;18905;42.668;23.364;2024-03-08T01:39:13;0.70;;;0.70;;
28625;SDS011;18905;42.668;23.364;2024-03-08T01:41:39;2.17;;;1.35;;
28625;SDS011;18905;42.668;23.364;2024-03-08T01:44:05;2.08;;;1.88;;
28625;SDS011;18905;42.668;23.364;2024-03-08T01:46:32;1.60;;;1.50;;
28625;SDS011;18905;42.668;23.364;2024-03-08T01:48:59;2.40;;;1.73;;
28625;SDS011;18905;42.668;23.364;2024-03-08T01:51:28;1.55;;;1.00;;
28625;SDS011;18905;42.668;23.364;2024-03-08T01:53:54;1.85;;;1.15;;
28625;SDS011;18905;42.668;23.364;2024-03-08T01:56:22;2.38;;;1.50;;
28625;SDS011;18905;42.668;23.364;2024-03-08T01:58:48;1.80;;;1.48;;
28625;SDS011;18905;42.668;23.364;2024-03-08T02:01:14;1.30;;;1.20;;
28625;SDS011;18905;42.668;23.364;2024-03-08T02:03:40;3.17;;;1.77;;
28625;SDS011;18905;42.668;23.364;2024-03-08T02:06:09;2.00;;;1.80;;
28625;SDS011;18905;42.668;23.364;2024-03-08T02:08:36;1.77;;;1.20;;
28625;SDS011;18905;42.668;23.364;2024-03-08T02:11:02;2.67;;;1.30;;
28625;SDS011;18905;42.668;23.364;2024-03-08T02:13:28;1.98;;;1.33;;
28625;SDS011;18905;42.668;23.364;2024-03-08T02:15:54;1.40;;;1.30;;
28625;SDS011;18905;42.668;23.364;2024-03-08T02:18:27;1.33;;;1.23;;
28625;SDS011;18905;42.668;23.364;2024-03-08T02:20:57;1.38;;;1.20;;
28625;SDS011;18905;42.668;23.364;2024-03-08T02:23:24;1.55;;;1.45;;
28625;SDS011;18905;42.668;23.364;2024-03-08T02:25:53;1.55;;;1.45;;
28625;SDS011;18905;42.668;23.364;2024-03-08T02:28:19;1.17;;;1.08;;
28625;SDS011;18905;42.668;23.364;2024-03-08T02:30:45;1.55;;;1.08;;
28625;SDS011;18905;42.668;23.364;2024-03-08T02:33:12;1.50;;;1.40;;
28625;SDS011;18905;42.668;23.364;2024-03-08T02:35:38;1.33;;;1.10;;
28625;SDS011;18905;42.668;23.364;2024-03-08T02:38:04;1.75;;;1.65;;
28625;SDS011;18905;42.668;23.364;2024-03-08T02:40:30;1.10;;;1.10;;
28625;SDS011;18905;42.668;23.364;2024-03-08T02:42:55;1.08;;;0.95;;
28625;SDS011;18905;42.668;23.364;2024-03-08T02:45:20;2.13;;;1.17;;
28625;SDS011;18905;42.668;23.364;2024-03-08T02:47:46;1.30;;;1.20;;
28625;SDS011;18905;42.668;23.364;2024-03-08T02:50:11;1.05;;;1.05;;
28625;SDS011;18905;42.668;23.364;2024-03-08T02:52:41;1.10;;;1.02;;
28625;SDS011;18905;42.668;23.364;2024-03-08T02:55:07;1.20;;;1.02;;
28625;SDS011;18905;42.668;23.364;2024-03-08T02:57:33;1.40;;;1.15;;
28625;SDS011;18905;42.668;23.364;2024-03-08T02:59:58;0.65;;;0.65;;
28625;SDS011;18905;42.668;23.364;2024-03-08T03:02:24;1.20;;;1.10;;
28625;SDS011;18905;42.668;23.364;2024-03-08T03:04:51;0.93;;;0.93;;
28625;SDS011;18905;42.668;23.364;2024-03-08T03:07:17;0.75;;;0.73;;
28625;SDS011;18905;42.668;23.364;2024-03-08T03:09:42;0.52;;;0.52;;
28625;SDS011;18905;42.668;23.364;2024-03-08T03:12:08;0.60;;;0.60;;
28625;SDS011;18905;42.668;23.364;2024-03-08T03:14:35;0.47;;;0.45;;
28625;SDS011;18905;42.668;23.364;2024-03-08T03:17:03;0.43;;;0.43;;
28625;SDS011;18905;42.668;23.364;2024-03-08T03:19:29;0.70;;;0.70;;
28625;SDS011;18905;42.668;23.364;2024-03-08T03:21:55;1.70;;;0.52;;
28625;SDS011;18905;42.668;23.364;2024-03-08T03:24:20;0.40;;;0.40;;
28625;SDS011;18905;42.668;23.364;2024-03-08T03:26:46;0.60;;;0.60;;
28625;SDS011;18905;42.668;23.364;2024-03-08T03:29:13;0.40;;;0.40;;
28625;SDS011;18905;42.668;23.364;2024-03-08T03:31:40;1.15;;;0.47;;
28625;SDS011;18905;42.668;23.364;2024-03-08T03:34:06;0.65;;;0.65;;
28625;SDS011;18905;42.668;23.364;2024-03-08T03:36:33;0.63;;;0.63;;
28625;SDS011;18905;42.668;23.364;2024-03-08T03:39:00;0.68;;;0.68;;
28625;SDS011;18905;42.668;23.364;2024-03-08T03:41:36;0.50;;;0.50;;
28625;SDS011;18905;42.668;23.364;2024-03-08T03:44:02;0.68;;;0.65;;
28625;SDS011;18905;42.668;23.364;2024-03-08T03:46:27;0.63;;;0.63;;
28625;SDS011;18905;42.668;23.364;2024-03-08T03:48:53;0.82;;;0.80;;
28625;SDS011;18905;42.668;23.364;2024-03-08T03:51:20;2.05;;;1.83;;
28625;SDS011;18905;42.668;23.364;2024-03-08T03:53:46;2.88;;;1.10;;
28625;SDS011;18905;42.668;23.364;2024-03-08T03:56:12;1.23;;;0.90;;
28625;SDS011;18905;42.668;23.364;2024-03-08T03:58:37;0.70;;;0.70;;
28625;SDS011;18905;42.668;23.364;2024-03-08T04:01:04;0.73;;;0.70;;
28625;SDS011;18905;42.668;23.364;2024-03-08T04:03:29;0.68;;;0.68;;
28625;SDS011;18905;42.668;23.364;2024-03-08T04:05:55;0.70;;;0.70;;
28625;SDS011;18905;42.668;23.364;2024-03-08T04:08:20;1.13;;;0.93;;
28625;SDS011;18905;42.668;23.364;2024-03-08T04:10:46;5.57;;;0.90;;
28625;SDS011;18905;42.668;23.364;2024-03-08T04:13:11;0.88;;;0.88;;
28625;SDS011;18905;42.668;23.364;2024-03-08T04:15:37;0.90;;;0.90;;
28625;SDS011;18905;42.668;23.364;2024-03-08T04:18:03;1.13;;;0.90;;
28625;SDS011;18905;42.668;23.364;2024-03-08T04:20:28;1.08;;;0.77;;
28625;SDS011;18905;42.668;23.364;2024-03-08T04:22:54;0.65;;;0.63;;
28625;SDS011;18905;42.668;23.364;2024-03-08T04:25:19;0.73;;;0.57;;
28625;SDS011;18905;42.668;23.364;2024-03-08T04:27:46;0.70;;;0.70;;
28625;SDS011;18905;42.668;23.364;2024-03-08T04:30:12;1.10;;;1.00;;
28625;SDS011;18905;42.668;23.364;2024-03-08T04:32:37;0.80;;;0.80;;
28625;SDS011;18905;42.668;23.364;2024-03-08T04:35:03;2.13;;;0.60;;
28625;SDS011;18905;42.668;23.364;2024-03-08T04:37:29;2.75;;;0.80;;
28625;SDS011;18905;42.668;23.364;2024-03-08T04:39:54;1.00;;;0.77;;
28625;SDS011;18905;42.668;23.364;2024-03-08T04:42:20;1.10;;;0.88;;
28625;SDS011;18905;42.668;23.364;2024-03-08T04:44:46;0.73;;;0.73;;
28625;SDS011;18905;42.668;23.364;2024-03-08T04:47:11;0.80;;;0.77;;
28625;SDS011;18905;42.668;23.364;2024-03-08T04:49:36;1.30;;;1.05;;
28625;SDS011;18905;42.668;23.364;2024-03-08T04:52:02;0.80;;;0.80;;
28625;SDS011;18905;42.668;23.364;2024-03-08T04:54:28;1.58;;;1.00;;
28625;SDS011;18905;42.668;23.364;2024-03-08T04:56:54;0.98;;;0.88;;
28625;SDS011;18905;42.668;23.364;2024-03-08T04:59:20;2.03;;;1.30;;
28625;SDS011;18905;42.668;23.364;2024-03-08T05:01:45;1.10;;;1.02;;
28625;SDS011;18905;42.668;23.364;2024-03-08T05:04:10;9.70;;;2.17;;
28625;SDS011;18905;42.668;23.364;2024-03-08T05:06:36;1.20;;;1.10;;
28625;SDS011;18905;42.668;23.364;2024-03-08T05:09:01;0.82;;;0.82;;
28625;SDS011;18905;42.668;23.364;2024-03-08T05:11:45;1.10;;;1.00;;
28625;SDS011;18905;42.668;23.364;2024-03-08T05:14:11;0.85;;;0.82;;
28625;SDS011;18905;42.668;23.364;2024-03-08T05:16:46;1.10;;;1.00;;
28625;SDS011;18905;42.668;23.364;2024-03-08T05:19:15;1.13;;;1.10;;
28625;SDS011;18905;42.668;23.364;2024-03-08T05:24:09;1.33;;;1.23;;
28625;SDS011;18905;42.668;23.364;2024-03-08T05:26:41;3.15;;;1.80;;
28625;SDS011;18905;42.668;23.364;2024-03-08T05:29:07;2.33;;;2.10;;
28625;SDS011;18905;42.668;23.364;2024-03-08T05:31:48;2.50;;;2.30;;
28625;SDS011;18905;42.668;23.364;2024-03-08T05:34:15;5.93;;;2.03;;
28625;SDS011;18905;42.668;23.364;2024-03-08T05:36:42;4.20;;;2.20;;
28625;SDS011;18905;42.668;23.364;2024-03-08T05:39:09;5.70;;;2.55;;
28625;SDS011;18905;42.668;23.364;2024-03-08T05:41:36;5.10;;;3.13;;
28625;SDS011;18905;42.668;23.364;2024-03-08T05:44:03;4.10;;;2.80;;
28625;SDS011;18905;42.668;23.364;2024-03-08T05:46:28;3.10;;;2.58;;
28625;SDS011;18905;42.668;23.364;2024-03-08T05:48:53;5.28;;;3.20;;
28625;SDS011;18905;42.668;23.364;2024-03-08T05:51:19;6.30;;;3.40;;
28625;SDS011;18905;42.668;23.364;2024-03-08T05:53:46;3.60;;;2.20;;
28625;SDS011;18905;42.668;23.364;2024-03-08T05:56:12;5.45;;;3.83;;
28625;SDS011;18905;42.668;23.364;2024-03-08T05:58:37;4.88;;;2.85;;
28625;SDS011;18905;42.668;23.364;2024-03-08T06:01:02;5.40;;;3.65;;
28625;SDS011;18905;42.668;23.364;2024-03-08T06:03:32;5.70;;;3.63;;
28625;SDS011;18905;42.668;23.364;2024-03-08T06:05:58;7.68;;;4.00;;
28625;SDS011;18905;42.668;23.364;2024-03-08T06:08:23;7.85;;;4.03;;
28625;SDS011;18905;42.668;23.364;2024-03-08T06:10:54;6.50;;;4.15;;
28625;SDS011;18905;42.668;23.364;2024-03-08T06:13:20;8.27;;;4.15;;
28625;SDS011;18905;42.668;23.364;2024-03-08T06:15:45;6.45;;;4.45;;
28625;SDS011;18905;42.668;23.364;2024-03-08T06:18:11;7.47;;;5.22;;
28625;SDS011;18905;42.668;23.364;2024-03-08T06:20:36;7.38;;;5.13;;
28625;SDS011;18905;42.668;23.364;2024-03-08T06:23:02;4.45;;;2.90;;
28625;SDS011;18905;42.668;23.364;2024-03-08T06:25:27;8.70;;;4.72;;
28625;SDS011;18905;42.668;23.364;2024-03-08T06:27:53;5.80;;;3.67;;
28625;SDS011;18905;42.668;23.364;2024-03-08T06:30:18;4.05;;;3.03;;
28625;SDS011;18905;42.668;23.364;2024-03-08T06:32:45;6.00;;;3.75;;
28625;SDS011;18905;42.668;23.364;2024-03-08T06:35:10;10.98;;;3.83;;
28625;SDS011;18905;42.668;23.364;2024-03-08T06:37:36;4.53;;;3.15;;
28625;SDS011;18905;42.668;23.364;2024-03-08T06:40:02;5.53;;;4.00;;
28625;SDS011;18905;42.668;23.364;2024-03-08T06:42:33;4.10;;;3.28;;
28625;SDS011;18905;42.668;23.364;2024-03-08T06:45:00;4.20;;;2.67;;
28625;SDS011;18905;42.668;23.364;2024-03-08T06:47:30;5.43;;;3.13;;
28625;SDS011;18905;42.668;23.364;2024-03-08T06:49:56;4.95;;;3.47;;
28625;SDS011;18905;42.668;23.364;2024-03-08T06:52:21;3.38;;;2.58;;
28625;SDS011;18905;42.668;23.364;2024-03-08T06:54:47;2.35;;;1.88;;
28625;SDS011;18905;42.668;23.364;2024-03-08T06:57:13;5.65;;;2.10;;
28625;SDS011;18905;42.668;23.364;2024-03-08T06:59:39;4.15;;;2.97;;
28625;SDS011;18905;42.668;23.364;2024-03-08T07:02:04;3.58;;;2.40;;
28625;SDS011;18905;42.668;23.364;2024-03-08T07:04:30;3.58;;;2.22;;
28625;SDS011;18905;42.668;23.364;2024-03-08T07:06:56;3.45;;;2.53;;
28625;SDS011;18905;42.668;23.364;2024-03-08T07:09:22;4.13;;;2.88;;
28625;SDS011;18905;42.668;23.364;2024-03-08T07:11:49;3.38;;;2.55;;
28625;SDS011;18905;42.668;23.364;2024-03-08T07:14:20;4.00;;;1.98;;
28625;SDS011;18905;42.668;23.364;2024-03-08T07:16:48;7.00;;;2.95;;
28625;SDS011;18905;42.668;23.364;2024-03-08T07:19:14;5.95;;;2.10;;
28625;SDS011;18905;42.668;23.364;2024-03-08T07:21:40;6.43;;;3.17;;
28625;SDS011;18905;42.668;23.364;2024-03-08T07:24:06;2.55;;;2.30;;
28625;SDS011;18905;42.668;23.364;2024-03-08T07:26:49;2.28;;;1.90;;
28625;SDS011;18905;42.668;23.364;2024-03-08T07:29:17;2.72;;;2.17;;
28625;SDS011;18905;42.668;23.364;2024-03-08T07:31:42;2.20;;;1.98;;
28625;SDS011;18905;42.668;23.364;2024-03-08T07:34:20;3.13;;;2.53;;
28625;SDS011;18905;42.668;23.364;2024-03-08T07:36:46;3.88;;;2.47;;
28625;SDS011;18905;42.668;23.364;2024-03-08T07:39:11;4.57;;;2.78;;
28625;SDS011;18905;42.668;23.364;2024-03-08T07:41:40;5.07;;;3.45;;
28625;SDS011;18905;42.668;23.364;2024-03-08T07:44:08;5.18;;;2.15;;
28625;SDS011;18905;42.668;23.364;2024-03-08T07:46:34;5.32;;;3.08;;
28625;SDS011;18905;42.668;23.364;2024-03-08T07:48:59;3.92;;;1.85;;
28625;SDS011;18905;42.668;23.364;2024-03-08T07:51:25;4.07;;;2.40;;
28625;SDS011;18905;42.668;23.364;2024-03-08T07:53:51;5.75;;;3.38;;
28625;SDS011;18905;42.668;23.364;2024-03-08T07:56:16;4.95;;;3.13;;
28625;SDS011;18905;42.668;23.364;2024-03-08T07:58:43;2.10;;;1.90;;
28625;SDS011;18905;42.668;23.364;2024-03-08T08:01:17;4.38;;;3.00;;
28625;SDS011;18905;42.668;23.364;2024-03-08T08:03:43;5.70;;;3.20;;
28625;SDS011;18905;42.668;23.364;2024-03-08T08:06:09;2.75;;;2.28;;
28625;SDS011;18905;42.668;23.364;2024-03-08T08:08:35;4.30;;;1.92;;
28625;SDS011;18905;42.668;23.364;2024-03-08T08:11:01;2.05;;;1.80;;
28625;SDS011;18905;42.668;23.364;2024-03-08T08:13:27;3.70;;;2.35;;
28625;SDS011;18905;42.668;23.364;2024-03-08T08:15:57;4.53;;;1.88;;
28625;SDS011;18905;42.668;23.364;2024-03-08T08:18:22;2.65;;;2.45;;
28625;SDS011;18905;42.668;23.364;2024-03-08T08:20:50;1.92;;;1.73;;
28625;SDS011;18905;42.668;23.364;2024-03-08T08:23:15;3.13;;;1.45;;
28625;SDS011;18905;42.668;23.364;2024-03-08T08:25:41;1.13;;;1.05;;
28625;SDS011;18905;42.668;23.364;2024-03-08T08:28:06;2.08;;;1.88;;
28625;SDS011;18905;42.668;23.364;2024-03-08T08:30:31;4.05;;;2.28;;
28625;SDS011;18905;42.668;23.364;2024-03-08T08:32:58;1.92;;;1.35;;
28625;SDS011;18905;42.668;23.364;2024-03-08T08:35:25;2.60;;;1.45;;
28625;SDS011;18905;42.668;23.364;2024-03-08T08:37:51;2.03;;;1.83;;
28625;SDS011;18905;42.668;23.364;2024-03-08T08:40:16;2.05;;;1.63;;
28625;SDS011;18905;42.668;23.364;2024-03-08T08:42:42;2.22;;;1.25;;
28625;SDS011;18905;42.668;23.364;2024-03-08T08:45:08;5.45;;;2.03;;
28625;SDS011;18905;42.668;23.364;2024-03-08T08:47:35;3.55;;;1.70;;
28625;SDS011;18905;42.668;23.364;2024-03-08T08:50:01;5.50;;;2.10;;
28625;SDS011;18905;42.668;23.364;2024-03-08T08:52:27;3.10;;;1.90;;
28625;SDS011;18905;42.668;23.364;2024-03-08T08:54:54;2.88;;;2.00;;
28625;SDS011;18905;42.668;23.364;2024-03-08T08:57:19;1.60;;;1.50;;
28625;SDS011;18905;42.668;23.364;2024-03-08T08:59:45;8.23;;;2.33;;
28625;SDS011;18905;42.668;23.364;2024-03-08T09:02:11;5.38;;;2.28;;
28625;SDS011;18905;42.668;23.364;2024-03-08T09:04:36;3.03;;;1.95;;
28625;SDS011;18905;42.668;23.364;2024-03-08T09:07:01;3.17;;;2.22;;
28625;SDS011;18905;42.668;23.364;2024-03-08T09:09:27;2.05;;;1.85;;
28625;SDS011;18905;42.668;23.364;2024-03-08T09:11:52;1.90;;;1.70;;
28625;SDS011;18905;42.668;23.364;2024-03-08T09:14:19;0.98;;;0.98;;
28625;SDS011;18905;42.668;23.364;2024-03-08T09:16:45;1.42;;;1.33;;
28625;SDS011;18905;42.668;23.364;2024-03-08T09:19:12;1.73;;;1.55;;
28625;SDS011;18905;42.668;23.364;2024-03-08T09:21:37;1.73;;;1.13;;
28625;SDS011;18905;42.668;23.364;2024-03-08T09:24:05;2.38;;;2.17;;
28625;SDS011;18905;42.668;23.364;2024-03-08T09:26:31;2.42;;;1.83;;
28625;SDS011;18905;42.668;23.364;2024-03-08T09:29:00;0.70;;;0.70;;
28625;SDS011;18905;42.668;23.364;2024-03-08T09:31:25;2.13;;;1.90;;
28625;SDS011;18905;42.668;23.364;2024-03-08T09:33:53;3.80;;;2.00;;
28625;SDS011;18905;42.668;23.364;2024-03-08T09:36:18;5.63;;;2.25;;
28625;SDS011;18905;42.668;23.364;2024-03-08T09:38:44;1.58;;;1.42;;
28625;SDS011;18905;42.668;23.364;2024-03-08T09:41:09;1.65;;;1.55;;
28625;SDS011;18905;42.668;23.364;2024-03-08T09:43:37;1.83;;;1.65;;
28625;SDS011;18905;42.668;23.364;2024-03-08T09:46:03;2.05;;;1.70;;
28625;SDS011;18905;42.668;23.364;2024-03-08T09:48:31;2.35;;;1.77;;
28625;SDS011;18905;42.668;23.364;2024-03-08T09:50:57;2.03;;;1.92;;
28625;SDS011;18905;42.668;23.364;2024-03-08T09:53:23;2.88;;;2.10;;
28625;SDS011;18905;42.668;23.364;2024-03-08T09:55:48;2.47;;;2.10;;
28625;SDS011;18905;42.668;23.364;2024-03-08T09:58:14;1.65;;;1.55;;
28625;SDS011;18905;42.668;23.364;2024-03-08T10:00:47;3.25;;;1.38;;
28625;SDS011;18905;42.668;23.364;2024-03-08T10:03:13;1.23;;;1.13;;
28625;SDS011;18905;42.668;23.364;2024-03-08T10:05:40;1.27;;;1.08;;
28625;SDS011;18905;42.668;23.364;2024-03-08T10:08:06;3.33;;;1.70;;
28625;SDS011;18905;42.668;23.364;2024-03-08T10:10:33;1.33;;;1.23;;
28625;SDS011;18905;42.668;23.364;2024-03-08T10:13:00;2.20;;;2.10;;
28625;SDS011;18905;42.668;23.364;2024-03-08T10:15:29;2.05;;;1.42;;
28625;SDS011;18905;42.668;23.364;2024-03-08T10:17:55;1.40;;;1.30;;
28625;SDS011;18905;42.668;23.364;2024-03-08T10:20:21;1.30;;;1.20;;
28625;SDS011;18905;42.668;23.364;2024-03-08T10:22:48;1.30;;;1.20;;
28625;SDS011;18905;42.668;23.364;2024-03-08T10:25:14;1.67;;;1.10;;
28625;SDS011;18905;42.668;23.364;2024-03-08T10:27:40;1.40;;;1.30;;
28625;SDS011;18905;42.668;23.364;2024-03-08T10:30:10;1.50;;;1.40;;
28625;SDS011;18905;42.668;23.364;2024-03-08T10:32:39;1.40;;;1.30;;
28625;SDS011;18905;42.668;23.364;2024-03-08T10:35:06;1.42;;;1.33;;
28625;SDS011;18905;42.668;23.364;2024-03-08T10:37:33;2.22;;;1.05;;
28625;SDS011;18905;42.668;23.364;2024-03-08T10:40:17;1.42;;;1.33;;
28625;SDS011;18905;42.668;23.364;2024-03-08T10:43:00;1.30;;;1.23;;
28625;SDS011;18905;42.668;23.364;2024-03-08T10:45:38;1.77;;;1.20;;
28625;SDS011;18905;42.668;23.364;2024-03-08T10:50:53;1.35;;;1.13;;
28625;SDS011;18905;42.668;23.364;2024-03-08T10:53:18;1.05;;;0.95;;
28625;SDS011;18905;42.668;23.364;2024-03-08T10:58:14;0.85;;;0.75;;
28625;SDS011;18905;42.668;23.364;2024-03-08T11:00:41;3.67;;;1.27;;
28625;SDS011;18905;42.668;23.364;2024-03-08T11:03:06;1.10;;;1.00;;
28625;SDS011;18905;42.668;23.364;2024-03-08T11:05:36;1.70;;;1.60;;
28625;SDS011;18905;42.668;23.364;2024-03-08T11:08:05;1.58;;;0.93;;
28625;SDS011;18905;42.668;23.364;2024-03-08T11:10:49;1.55;;;1.35;;
28625;SDS011;18905;42.668;23.364;2024-03-08T11:16:01;1.60;;;1.50;;
28625;SDS011;18905;42.668;23.364;2024-03-08T11:18:35;1.42;;;1.33;;
28625;SDS011;18905;42.668;23.364;2024-03-08T11:21:02;3.58;;;1.05;;
28625;SDS011;18905;42.668;23.364;2024-03-08T11:23:31;1.35;;;1.10;;
28625;SDS011;18905;42.668;23.364;2024-03-08T11:25:58;0.93;;;0.93;;
28625;SDS011;18905;42.668;23.364;2024-03-08T11:28:24;1.38;;;1.13;;
28625;SDS011;18905;42.668;23.364;2024-03-08T11:33:24;1.52;;;0.85;;
28625;SDS011;18905;42.668;23.364;2024-03-08T11:35:52;1.55;;;0.52;;
28625;SDS011;18905;42.668;23.364;2024-03-08T11:38:27;1.40;;;1.30;;
28625;SDS011;18905;42.668;23.364;2024-03-08T11:40:56;1.85;;;1.25;;
28625;SDS011;18905;42.668;23.364;2024-03-08T11:43:22;3.42;;;1.27;;
28625;SDS011;18905;42.668;23.364;2024-03-08T11:45:47;1.42;;;1.27;;
28625;SDS011;18905;42.668;23.364;2024-03-08T11:48:13;1.55;;;0.90;;
28625;SDS011;18905;42.668;23.364;2024-03-08T11:50:39;0.90;;;0.90;;
28625;SDS011;18905;42.668;23.364;2024-03-08T11:53:05;3.67;;;1.08;;
28625;SDS011;18905;42.668;23.364;2024-03-08T11:55:31;1.23;;;1.15;;
28625;SDS011;18905;42.668;23.364;2024-03-08T11:58:01;1.25;;;1.23;;
28625;SDS011;18905;42.668;23.364;2024-03-08T12:00:28;0.95;;;0.95;;
28625;SDS011;18905;42.668;23.364;2024-03-08T12:03:03;0.98;;;0.98;;
28625;SDS011;18905;42.668;23.364;2024-03-08T12:05:30;3.90;;;1.40;;
28625;SDS011;18905;42.668;23.364;2024-03-08T12:07:59;0.73;;;0.73;;
28625;SDS011;18905;42.668;23.364;2024-03-08T12:10:25;4.03;;;1.52;;
28625;SDS011;18905;42.668;23.364;2024-03-08T12:12:54;1.50;;;1.02;;
28625;SDS011;18905;42.668;23.364;2024-03-08T12:15:24;1.50;;;1.40;;
28625;SDS011;18905;42.668;23.364;2024-03-08T12:22:43;1.52;;;1.08;;
28625;SDS011;18905;42.668;23.364;2024-03-08T12:25:10;1.10;;;1.02;;
28625;SDS011;18905;42.668;23.364;2024-03-08T12:27:38;0.63;;;0.63;;
28625;SDS011;18905;42.668;23.364;2024-03-08T12:30:17;2.13;;;1.00;;
28625;SDS011;18905;42.668;23.364;2024-03-08T12:32:50;1.65;;;1.23;;
28625;SDS011;18905;42.668;23.364;2024-03-08T12:35:19;0.90;;;0.90;;
28625;SDS011;18905;42.668;23.364;2024-03-08T12:37:47;1.65;;;1.30;;
28625;SDS011;18905;42.668;23.364;2024-03-08T12:40:29;2.72;;;0.95;;
28625;SDS011;18905;42.668;23.364;2024-03-08T12:42:56;0.70;;;0.70;;
28625;SDS011;18905;42.668;23.364;2024-03-08T12:45:23;0.90;;;0.60;;
28625;SDS011;18905;42.668;23.364;2024-03-08T12:47:52;2.05;;;0.77;;
28625;SDS011;18905;42.668;23.364;2024-03-08T12:50:18;0.95;;;0.82;;
28625;SDS011;18905;42.668;23.364;2024-03-08T12:52:44;2.15;;;1.10;;
28625;SDS011;18905;42.668;23.364;2024-03-08T12:55:10;1.95;;;1.38;;
28625;SDS011;18905;42.668;23.364;2024-03-08T12:57:35;0.75;;;0.75;;
28625;SDS011;18905;42.668;23.364;2024-03-08T13:00:02;1.48;;;0.80;;
28625;SDS011;18905;42.668;23.364;2024-03-08T13:02:29;1.20;;;1.10;;
28625;SDS011;18905;42.668;23.364;2024-03-08T13:04:56;0.80;;;0.80;;
28625;SDS011;18905;42.668;23.364;2024-03-08T13:07:25;1.05;;;0.95;;
28625;SDS011;18905;42.668;23.364;2024-03-08T13:09:54;1.60;;;1.00;;
28625;SDS011;18905;42.668;23.364;2024-03-08T13:12:23;0.90;;;0.90;;
28625;SDS011;18905;42.668;23.364;2024-03-08T13:14:49;2.08;;;1.08;;
28625;SDS011;18905;42.668;23.364;2024-03-08T13:17:15;0.75;;;0.75;;
28625;SDS011;18905;42.668;23.364;2024-03-08T13:19:40;0.82;;;0.82;;
28625;SDS011;18905;42.668;23.364;2024-03-08T13:22:07;1.20;;;1.10;;
28625;SDS011;18905;42.668;23.364;2024-03-08T13:24:37;1.00;;;1.00;;
28625;SDS011;18905;42.668;23.364;2024-03-08T13:27:05;2.33;;;1.65;;
28625;SDS011;18905;42.668;23.364;2024-03-08T13:29:41;0.80;;;0.80;;
28625;SDS011;18905;42.668;23.364;2024-03-08T13:32:08;1.33;;;1.23;;
28625;SDS011;18905;42.668;23.364;2024-03-08T13:34:36;1.40;;;1.30;;
28625;SDS011;18905;42.668;23.364;2024-03-08T13:37:02;1.10;;;1.00;;
28625;SDS011;18905;42.668;23.364;2024-03-08T13:39:30;1.05;;;1.05;;
28625;SDS011;18905;42.668;23.364;2024-03-08T13:42:05;1.05;;;1.05;;
28625;SDS011;18905;42.668;23.364;2024-03-08T13:44:36;0.60;;;0.50;;
28625;SDS011;18905;42.668;23.364;2024-03-08T13:47:02;0.73;;;0.73;;
28625;SDS011;18905;42.668;23.364;2024-03-08T13:49:29;1.42;;;0.90;;
28625;SDS011;18905;42.668;23.364;2024-03-08T13:51:55;1.48;;;1.02;;
28625;SDS011;18905;42.668;23.364;2024-03-08T13:54:20;1.20;;;1.10;;
28625;SDS011;18905;42.668;23.364;2024-03-08T13:56:46;1.17;;;1.17;;
28625;SDS011;18905;42.668;23.364;2024-03-08T13:59:12;3.70;;;1.40;;
28625;SDS011;18905;42.668;23.364;2024-03-08T14:01:38;1.75;;;1.20;;
28625;SDS011;18905;42.668;23.364;2024-03-08T14:04:03;1.30;;;1.10;;
28625;SDS011;18905;42.668;23.364;2024-03-08T14:06:29;1.65;;;1.05;;
28625;SDS011;18905;42.668;23.364;2024-03-08T14:08:55;1.48;;;0.80;;
28625;SDS011;18905;42.668;23.364;2024-03-08T14:11:22;1.25;;;0.95;;
28625;SDS011;18905;42.668;23.364;2024-03-08T14:13:49;5.10;;;1.65;;
28625;SDS011;18905;42.668;23.364;2024-03-08T14:16:14;1.17;;;1.08;;
28625;SDS011;18905;42.668;23.364;2024-03-08T14:18:40;1.55;;;1.45;;
28625;SDS011;18905;42.668;23.364;2024-03-08T14:21:05;1.83;;;1.23;;
28625;SDS011;18905;42.668;23.364;2024-03-08T14:23:33;1.00;;;0.98;;
28625;SDS011;18905;42.668;23.364;2024-03-08T14:25:59;4.68;;;1.50;;
28625;SDS011;18905;42.668;23.364;2024-03-08T14:28:24;1.48;;;1.27;;
28625;SDS011;18905;42.668;23.364;2024-03-08T14:30:52;2.97;;;1.73;;
28625;SDS011;18905;42.668;23.364;2024-03-08T14:33:18;1.75;;;1.60;;
28625;SDS011;18905;42.668;23.364;2024-03-08T14:35:43;3.45;;;1.60;;
28625;SDS011;18905;42.668;23.364;2024-03-08T14:38:12;1.40;;;1.30;;
28625;SDS011;18905;42.668;23.364;2024-03-08T14:40:38;2.20;;;1.83;;
28625;SDS011;18905;42.668;23.364;2024-03-08T14:43:04;6.53;;;2.60;;
28625;SDS011;18905;42.668;23.364;2024-03-08T14:45:29;2.22;;;1.50;;
28625;SDS011;18905;42.668;23.364;2024-03-08T14:47:55;3.03;;;1.70;;
28625;SDS011;18905;42.668;23.364;2024-03-08T14:50:22;1.38;;;1.27;;